createdAt,value
2018-02-06T00:02:04.795Z,59.40
2018-02-06T00:04:33.063Z,59.50
2018-02-06T00:07:01.303Z,59.40
2018-02-06T00:09:28.818Z,59.30
2018-02-06T00:11:56.317Z,59.40
2018-02-06T00:14:23.790Z,59.70
2018-02-06T00:16:51.363Z,59.60
2018-02-06T00:19:19.605Z,59.90
2018-02-06T00:21:47.083Z,59.80
2018-02-06T00:24:15.343Z,60.20
2018-02-06T00:26:42.815Z,60.10
2018-02-06T00:29:10.290Z,60.10
2018-02-06T00:31:38.630Z,60.40
2018-02-06T00:34:08.030Z,60.40
2018-02-06T00:36:35.510Z,60.10
2018-02-06T00:39:02.991Z,60.20
2018-02-06T00:41:30.470Z,60.00
2018-02-06T00:43:57.940Z,59.60
2018-02-06T00:46:25.445Z,59.80
2018-02-06T00:48:52.893Z,60.00
2018-02-06T00:51:21.136Z,59.90
2018-02-06T00:53:48.638Z,59.90
2018-02-06T00:56:16.119Z,60.00
2018-02-06T00:58:43.592Z,60.00
2018-02-06T01:01:11.070Z,60.00
2018-02-06T01:03:38.538Z,59.70
2018-02-06T01:06:07.068Z,59.70
2018-02-06T01:08:35.425Z,60.20
2018-02-06T01:11:02.895Z,60.20
2018-02-06T01:13:30.369Z,60.60
2018-02-06T01:15:57.858Z,60.60
2018-02-06T01:18:25.362Z,60.60
2018-02-06T01:20:52.839Z,61.50
2018-02-06T01:23:20.319Z,61.00
2018-02-06T01:25:47.787Z,61.10
2018-02-06T01:28:15.264Z,60.50
2018-02-06T01:30:43.519Z,60.60
2018-02-06T01:33:10.988Z,60.70
2018-02-06T01:35:39.232Z,61.10
2018-02-06T01:38:06.815Z,61.10
2018-02-06T01:40:35.062Z,60.80
2018-02-06T01:43:02.548Z,60.80
2018-02-06T01:45:30.806Z,60.50
2018-02-06T01:47:58.269Z,60.40
2018-02-06T01:50:25.751Z,60.60
2018-02-06T01:52:53.998Z,61.00
2018-02-06T01:55:21.464Z,61.10
2018-02-06T01:57:49.706Z,61.30
2018-02-06T02:00:17.278Z,61.30
2018-02-06T02:02:44.758Z,61.10
2018-02-06T02:05:12.999Z,60.80
2018-02-06T02:07:40.575Z,60.90
2018-02-06T02:10:08.035Z,61.20
2018-02-06T02:12:36.273Z,61.20
2018-02-06T02:15:03.767Z,61.20
2018-02-06T02:17:31.998Z,61.20
2018-02-06T02:19:59.466Z,61.20
2018-02-06T02:22:26.970Z,61.20
2018-02-06T02:24:54.458Z,60.70
2018-02-06T02:27:21.936Z,60.80
2018-02-06T02:29:49.412Z,60.60
2018-02-06T02:32:16.872Z,60.80
2018-02-06T02:34:45.124Z,61.20
2018-02-06T02:37:12.608Z,61.20
2018-02-06T02:39:40.079Z,61.00
2018-02-06T04:40:19.279Z,62.80
2018-02-06T04:42:47.528Z,63.10
2018-02-06T04:45:14.997Z,63.00
2018-02-06T04:47:42.490Z,63.10
2018-02-06T04:50:09.950Z,63.10
2018-02-06T04:52:38.249Z,63.10
2018-02-06T04:55:06.471Z,62.90
2018-02-06T04:57:33.974Z,62.90
2018-02-06T05:00:02.257Z,62.60
2018-02-06T05:02:29.718Z,62.60
2018-02-06T05:04:57.201Z,62.40
2018-02-06T05:07:24.741Z,62.50
2018-02-06T05:09:52.350Z,62.40
2018-02-06T05:12:20.222Z,62.40
2018-02-06T05:14:48.759Z,62.30
2018-02-06T05:17:16.309Z,62.20
2018-02-06T05:19:43.800Z,62.40
2018-02-06T05:22:11.265Z,62.60
2018-02-06T05:24:39.574Z,62.50
2018-02-06T05:27:07.057Z,62.70
2018-02-06T05:29:34.542Z,62.50
2018-02-06T05:32:02.007Z,62.70
2018-02-06T05:34:29.497Z,62.70
2018-02-06T05:36:56.969Z,62.70
2018-02-06T05:39:24.468Z,63.00
2018-02-06T05:41:51.944Z,62.70
2018-02-06T05:44:20.254Z,62.60
2018-02-06T05:46:47.740Z,62.60
2018-02-06T05:49:15.201Z,62.70
2018-02-06T05:51:42.692Z,63.00
2018-02-06T05:54:10.944Z,63.50
2018-02-06T05:56:38.412Z,62.90
2018-02-06T05:59:06.666Z,63.00
2018-02-06T06:01:34.128Z,63.00
2018-02-06T06:04:01.627Z,62.80
2018-02-06T06:06:29.100Z,62.90
2018-02-06T06:08:56.877Z,62.90
2018-02-06T06:11:24.358Z,62.70
2018-02-06T06:13:51.829Z,63.40
2018-02-06T06:16:20.094Z,62.90
2018-02-06T06:18:47.560Z,62.60
2018-02-06T06:21:15.052Z,62.70
2018-02-06T06:23:42.516Z,62.70
2018-02-06T06:26:10.003Z,62.60
2018-02-06T06:28:38.276Z,63.00
2018-02-06T06:31:05.748Z,63.10
2018-02-06T06:33:33.226Z,63.00
2018-02-06T06:36:01.489Z,62.90
2018-02-06T06:38:29.720Z,63.10
2018-02-06T06:40:57.191Z,62.70
2018-02-06T06:43:24.666Z,62.60
2018-02-06T06:45:52.128Z,62.70
2018-02-06T06:48:19.624Z,62.90
2018-02-06T06:50:47.118Z,63.20
2018-02-06T06:53:14.840Z,63.40
2018-02-06T06:55:42.350Z,63.40
2018-02-06T06:58:09.811Z,63.50
2018-02-06T07:00:37.276Z,63.40
2018-02-06T07:03:05.540Z,63.30
2018-02-06T07:05:33.006Z,63.30
2018-02-06T07:08:00.492Z,63.20
2018-02-06T07:10:27.959Z,63.10
2018-02-06T07:12:55.444Z,63.20
2018-02-06T07:15:22.909Z,63.20
2018-02-06T07:17:50.402Z,63.20
2018-02-06T07:20:18.654Z,63.20
2018-02-06T07:22:46.140Z,63.20
2018-02-06T07:25:13.606Z,63.20
2018-02-06T07:27:41.098Z,63.20
2018-02-06T07:30:08.594Z,63.30
2018-02-06T07:32:36.822Z,63.30
2018-02-06T07:35:04.318Z,63.30
2018-02-06T07:37:32.566Z,63.60
2018-02-06T07:40:00.023Z,63.60
2018-02-06T07:42:27.506Z,63.80
2018-02-06T07:44:55.749Z,64.00
2018-02-06T07:47:23.219Z,64.00
2018-02-06T07:49:50.689Z,64.00
2018-02-06T07:52:18.190Z,64.10
2018-02-06T07:54:45.654Z,64.20
2018-02-06T07:57:13.150Z,64.30
2018-02-06T07:59:40.633Z,64.30
2018-02-06T08:02:08.863Z,64.30
2018-02-06T08:04:36.345Z,64.30
2018-02-06T08:07:04.582Z,64.00
2018-02-06T08:09:32.072Z,64.00
2018-02-06T08:11:59.533Z,64.00
2018-02-06T08:14:27.789Z,64.20
2018-02-06T08:16:55.249Z,64.10
2018-02-06T08:19:22.714Z,64.10
2018-02-06T08:21:50.978Z,63.90
2018-02-06T08:24:18.434Z,63.80
2018-02-06T08:26:45.930Z,63.80
2018-02-06T08:29:13.392Z,63.90
2018-02-06T08:31:40.877Z,63.90
2018-02-06T08:34:08.350Z,63.90
2018-02-06T08:36:35.841Z,63.40
2018-02-06T08:39:04.093Z,63.10
2018-02-06T08:41:31.593Z,63.20
2018-02-06T08:43:59.060Z,63.10
2018-02-06T08:46:26.522Z,63.20
2018-02-06T08:48:54.015Z,63.30
2018-02-06T08:51:21.509Z,62.80
2018-02-06T08:53:49.033Z,63.20
2018-02-06T08:56:16.488Z,63.10
2018-02-06T08:58:43.953Z,62.80
2018-02-06T09:01:12.201Z,63.30
2018-02-06T09:03:39.671Z,63.30
2018-02-06T09:06:07.164Z,63.00
2018-02-06T09:08:34.620Z,63.20
2018-02-06T09:11:02.132Z,63.50
2018-02-06T09:13:29.611Z,63.10
2018-02-06T09:15:57.841Z,62.80
2018-02-06T09:18:25.325Z,62.80
2018-02-06T09:20:52.785Z,62.90
2018-02-06T09:23:20.276Z,62.90
2018-02-06T09:25:47.760Z,62.50
2018-02-06T09:28:15.217Z,62.00
2018-02-06T09:30:42.722Z,62.10
2018-02-06T09:33:10.967Z,61.80
2018-02-06T09:35:38.441Z,61.80
2018-02-06T09:38:05.922Z,61.40
2018-02-06T09:40:34.180Z,61.10
2018-02-06T09:43:02.405Z,60.50
2018-02-06T09:45:29.916Z,60.50
2018-02-06T09:47:57.397Z,60.20
2018-02-06T09:50:24.858Z,60.50
2018-02-06T09:52:52.326Z,60.30
2018-02-06T09:55:19.824Z,59.70
2018-02-06T09:57:47.312Z,59.10
2018-02-06T10:00:14.798Z,59.20
2018-02-06T10:02:42.285Z,59.10
2018-02-06T10:05:09.776Z,58.80
2018-02-06T10:07:37.261Z,59.00
2018-02-06T10:10:04.771Z,59.00
2018-02-06T10:12:32.224Z,59.30
2018-02-06T10:15:00.465Z,58.80
2018-02-06T10:17:27.964Z,58.80
2018-02-06T10:19:56.203Z,57.90
2018-02-06T10:22:23.706Z,58.30
2018-02-06T10:24:51.170Z,57.90
2018-02-06T10:27:18.634Z,57.70
2018-02-06T10:29:46.117Z,57.20
2018-02-06T10:32:13.590Z,57.40
2018-02-06T10:34:41.074Z,57.30
2018-02-06T10:37:09.301Z,57.10
2018-02-06T10:39:36.804Z,57.10
2018-02-06T10:42:05.033Z,57.40
2018-02-06T10:44:32.501Z,57.40
2018-02-06T10:46:59.979Z,56.90
2018-02-06T10:49:27.438Z,57.10
2018-02-06T10:51:55.731Z,57.20
2018-02-06T10:54:23.953Z,57.60
2018-02-06T10:56:51.429Z,57.60
2018-02-06T10:59:18.893Z,57.60
2018-02-06T11:01:47.154Z,57.90
2018-02-06T11:04:14.618Z,57.80
2018-02-06T11:06:42.098Z,58.10
2018-02-06T11:09:10.333Z,58.00
2018-02-06T11:11:37.812Z,58.00
2018-02-06T11:14:05.297Z,57.90
2018-02-06T11:16:32.788Z,58.20
2018-02-06T11:19:00.248Z,58.30
2018-02-06T11:21:27.733Z,58.10
2018-02-06T11:23:55.199Z,57.80
2018-02-06T11:26:22.676Z,57.90
2018-02-06T11:28:50.138Z,57.90
2018-02-06T11:31:17.629Z,57.70
2018-02-06T11:33:45.119Z,57.60
2018-02-06T11:36:12.585Z,57.30
2018-02-06T11:38:40.855Z,57.20
2018-02-06T11:41:09.090Z,56.60
2018-02-06T11:43:36.549Z,56.60
2018-02-06T11:46:04.043Z,56.20
2018-02-06T11:48:31.497Z,56.00
2018-02-06T11:50:59.747Z,55.20
2018-02-06T11:53:27.233Z,55.20
2018-02-06T11:55:55.480Z,55.20
2018-02-06T11:58:22.941Z,55.20
2018-02-06T12:00:50.425Z,55.30
2018-02-06T12:03:18.664Z,54.90
2018-02-06T12:05:46.158Z,54.90
2018-02-06T12:08:14.405Z,54.20
2018-02-06T12:10:41.901Z,54.20
2018-02-06T12:13:13.448Z,53.80
2018-02-06T12:15:40.964Z,53.80
2018-02-06T12:18:08.443Z,54.20
2018-02-06T12:20:36.665Z,54.30
2018-02-06T12:23:04.180Z,54.30
2018-02-06T12:25:32.396Z,53.50
2018-02-06T12:27:59.853Z,53.50
2018-02-06T12:30:27.324Z,53.90
2018-02-06T12:32:54.790Z,53.00
2018-02-06T12:35:22.257Z,52.80
2018-02-06T12:37:49.741Z,51.40
2018-02-06T12:40:17.228Z,50.60
2018-02-06T12:42:44.690Z,51.30
2018-02-06T12:45:12.170Z,51.10
2018-02-06T12:47:39.633Z,49.50
2018-02-06T12:50:07.087Z,48.10
2018-02-06T12:52:34.554Z,47.40
2018-02-06T12:55:02.777Z,47.10
2018-02-06T12:57:30.234Z,47.10
2018-02-06T12:59:58.042Z,45.10
2018-02-06T13:02:25.494Z,44.30
2018-02-06T13:04:52.953Z,45.70
2018-02-06T13:07:20.440Z,45.50
2018-02-06T13:09:47.904Z,45.90
2018-02-06T13:12:15.353Z,45.40
2018-02-06T13:14:42.916Z,46.20
2018-02-06T13:17:10.379Z,46.10
2018-02-06T13:19:37.841Z,45.90
2018-02-06T13:22:05.311Z,45.60
2018-02-06T13:24:33.537Z,45.00
2018-02-06T13:27:01.797Z,43.30
2018-02-06T13:29:29.384Z,43.20
2018-02-06T13:31:56.836Z,42.40
2018-02-06T13:34:24.292Z,42.60
2018-02-06T13:36:51.781Z,42.60
2018-02-06T13:39:19.235Z,41.60
2018-02-06T13:41:46.700Z,40.70
2018-02-06T13:44:14.190Z,40.30
2018-02-06T13:46:41.637Z,40.30
2018-02-06T13:49:09.101Z,40.40
2018-02-06T13:51:36.749Z,39.90
2018-02-06T13:54:04.210Z,40.00
2018-02-06T13:56:31.665Z,39.20
2018-02-06T13:58:59.138Z,39.30
2018-02-06T14:01:27.457Z,38.90
2018-02-06T14:03:54.945Z,38.80
2018-02-06T14:06:22.428Z,39.10
2018-02-06T14:08:50.658Z,40.40
2018-02-06T14:11:18.197Z,40.40
2018-02-06T14:13:45.661Z,40.40
2018-02-06T14:16:13.142Z,41.10
2018-02-06T14:18:40.605Z,41.70
2018-02-06T14:21:08.093Z,42.00
2018-02-06T14:23:36.321Z,41.70
2018-02-06T14:26:03.800Z,41.70
2018-02-06T14:28:31.257Z,41.80
2018-02-06T14:30:58.746Z,41.60
2018-02-06T14:33:26.218Z,41.00
2018-02-06T14:35:53.708Z,41.40
2018-02-06T14:38:21.862Z,41.70
2018-02-06T14:40:49.329Z,42.40
2018-02-06T14:43:16.813Z,42.90
2018-02-06T14:45:45.044Z,45.30
2018-02-06T14:48:12.521Z,44.90
2018-02-06T14:50:40.009Z,45.30
2018-02-06T14:53:08.259Z,45.20
2018-02-06T14:55:35.745Z,45.20
2018-02-06T14:58:03.972Z,45.80
2018-02-06T15:00:31.470Z,45.80
2018-02-06T15:02:59.696Z,45.90
2018-02-06T15:05:27.153Z,45.90
2018-02-06T15:07:54.643Z,46.30
2018-02-06T15:10:22.096Z,46.50
2018-02-06T15:12:49.579Z,46.40
2018-02-06T15:15:17.821Z,46.70
2018-02-06T15:17:45.285Z,46.80
2018-02-06T15:20:12.749Z,46.60
2018-02-06T15:22:40.993Z,46.40
2018-02-06T15:25:08.472Z,46.40
2018-02-06T15:27:35.928Z,46.20
2018-02-06T15:30:04.193Z,46.60
2018-02-06T15:32:31.653Z,46.10
2018-02-06T15:34:59.108Z,46.50
2018-02-06T15:37:26.573Z,46.80
2018-02-06T15:39:54.812Z,47.40
2018-02-06T15:42:22.298Z,47.40
2018-02-06T15:44:50.548Z,48.40
2018-02-06T15:47:18.098Z,48.80
2018-02-06T15:49:45.594Z,48.40
2018-02-06T15:52:13.045Z,48.90
2018-02-06T15:54:40.542Z,49.10
2018-02-06T15:57:08.042Z,49.30
2018-02-06T15:59:35.505Z,49.70
2018-02-06T16:02:02.988Z,50.00
2018-02-06T16:04:31.225Z,50.40
2018-02-06T16:06:58.713Z,50.50
2018-02-06T16:09:27.037Z,51.10
2018-02-06T16:12:00.067Z,51.10
2018-02-06T16:14:28.080Z,51.60
2018-02-06T16:16:59.853Z,52.10
2018-02-06T16:19:27.326Z,52.50
2018-02-06T16:21:54.792Z,52.90
2018-02-06T16:24:22.299Z,53.30
2018-02-06T16:26:49.774Z,53.50
2018-02-06T16:29:17.269Z,53.70
2018-02-06T16:31:44.732Z,53.90
2018-02-06T16:34:12.988Z,54.50
2018-02-06T16:36:40.478Z,54.50
2018-02-06T16:39:08.706Z,54.90
2018-02-06T16:41:36.205Z,54.90
2018-02-06T16:44:04.430Z,55.10
2018-02-06T16:46:31.914Z,55.10
2018-02-06T16:48:59.373Z,55.30
2018-02-06T16:51:27.646Z,55.60
2018-02-06T16:53:55.101Z,55.60
2018-02-06T16:56:23.363Z,56.70
2018-02-06T16:58:50.821Z,56.00
2018-02-06T17:01:18.326Z,56.30
2018-02-06T17:03:45.786Z,56.30
2018-02-06T17:06:13.257Z,56.40
2018-02-06T17:08:40.740Z,56.40
2018-02-06T17:11:08.205Z,56.40
2018-02-06T17:13:35.693Z,56.50
2018-02-06T17:16:03.206Z,56.50
2018-02-06T17:18:30.676Z,56.60
2018-02-06T17:20:58.160Z,56.60
2018-02-06T17:23:25.670Z,57.20
2018-02-06T17:25:53.164Z,57.20
2018-02-06T17:28:21.381Z,56.80
2018-02-06T17:30:48.856Z,56.80
2018-02-06T17:33:16.330Z,56.70
2018-02-06T17:35:43.825Z,56.60
2018-02-06T17:38:11.675Z,56.40
2018-02-06T17:40:39.180Z,56.40
2018-02-06T17:43:06.703Z,56.10
2018-02-06T17:45:34.302Z,55.90
2018-02-06T17:48:01.840Z,55.80
2018-02-06T17:50:29.320Z,55.60
2018-02-06T17:52:56.809Z,55.50
2018-02-06T17:55:25.356Z,54.90
2018-02-06T17:57:54.445Z,54.90
2018-02-06T18:00:21.982Z,54.90
2018-02-06T18:02:49.491Z,54.90
2018-02-06T18:05:17.760Z,54.60
2018-02-06T18:07:46.093Z,54.90
2018-02-06T18:10:13.587Z,55.40
2018-02-06T18:12:41.130Z,54.90
2018-02-06T18:15:08.661Z,54.90
2018-02-06T18:17:36.226Z,55.20
2018-02-06T18:20:03.718Z,55.10
2018-02-06T18:22:31.197Z,55.10
2018-02-06T18:24:58.737Z,55.60
2018-02-06T18:27:27.077Z,55.90
2018-02-06T18:29:54.800Z,55.10
2018-02-06T18:32:22.412Z,55.10
2018-02-06T18:34:49.899Z,55.20
2018-02-06T18:37:18.264Z,55.00
2018-02-06T18:39:45.688Z,55.00
2018-02-06T18:42:13.237Z,55.00
2018-02-06T18:44:41.432Z,55.50
2018-02-06T18:47:08.927Z,55.50
2018-02-06T18:49:37.153Z,55.50
2018-02-06T18:52:04.649Z,55.50
2018-02-06T18:54:32.885Z,55.50
2018-02-06T18:57:00.386Z,55.50
2018-02-06T18:59:28.664Z,55.60
2018-02-06T19:01:56.888Z,55.70
2018-02-06T19:04:24.397Z,55.70
2018-02-06T19:06:51.861Z,56.00
2018-02-06T19:09:19.428Z,56.10
2018-02-06T19:11:46.913Z,56.00
2018-02-06T19:14:14.405Z,55.90
2018-02-06T19:16:42.677Z,56.20
2018-02-06T19:19:10.956Z,56.80
2018-02-06T19:21:38.387Z,56.30
2018-02-06T19:24:05.913Z,56.30
2018-02-06T19:26:33.408Z,56.40
2018-02-06T19:29:00.872Z,56.40
2018-02-06T19:31:29.139Z,56.60
2018-02-06T19:33:56.752Z,56.60
2018-02-06T19:36:24.353Z,56.80
2018-02-06T19:38:51.926Z,56.70
2018-02-06T19:41:19.430Z,56.80
2018-02-06T19:43:46.968Z,57.00
2018-02-06T19:46:14.453Z,57.10
2018-02-06T19:48:41.991Z,57.20
2018-02-06T19:51:09.468Z,57.20
2018-02-06T19:53:37.021Z,57.40
2018-02-06T19:56:04.496Z,57.20
2018-02-06T19:58:32.009Z,57.30
2018-02-06T20:01:00.443Z,57.70
2018-02-06T20:03:27.962Z,57.70
2018-02-06T20:05:55.472Z,57.60
2018-02-06T20:08:22.970Z,57.70
2018-02-06T20:10:50.482Z,57.60
2018-02-06T20:13:18.227Z,57.70
2018-02-06T20:15:45.755Z,57.80
2018-02-06T20:18:13.276Z,57.90
2018-02-06T20:20:41.536Z,57.80
2018-02-06T20:23:09.039Z,57.80
2018-02-06T20:28:32.161Z,58.00
2018-02-06T20:30:59.642Z,58.10
2018-02-06T20:33:27.896Z,58.10
2018-02-06T20:35:56.187Z,58.70
2018-02-06T20:38:24.442Z,58.20
2018-02-06T20:40:51.980Z,58.10
2018-02-06T20:43:40.284Z,58.20
2018-02-06T20:46:07.762Z,58.00
2018-02-06T20:48:35.224Z,58.30
2018-02-06T20:53:54.808Z,58.80
2018-02-06T20:56:22.323Z,58.70
2018-02-06T20:58:50.608Z,58.80
2018-02-06T21:01:18.848Z,58.90
2018-02-06T21:03:46.326Z,58.90
2018-02-06T21:06:14.590Z,58.80
2018-02-06T21:08:42.908Z,58.90
2018-02-06T21:11:11.138Z,59.10
2018-02-06T21:13:39.406Z,59.10
2018-02-06T21:16:06.893Z,59.00
2018-02-06T21:18:34.361Z,59.10
2018-02-06T21:21:01.862Z,59.10
2018-02-06T21:23:30.285Z,59.10
2018-02-06T21:25:57.826Z,59.20
2018-02-06T21:28:25.296Z,59.30
2018-02-06T21:30:52.844Z,59.50
2018-02-06T21:33:21.077Z,59.70
2018-02-06T21:35:48.577Z,59.70
2018-02-06T21:38:16.101Z,59.60
2018-02-06T21:40:43.589Z,59.60
2018-02-06T21:43:11.812Z,60.00
2018-02-06T21:45:39.304Z,60.00
2018-02-06T21:48:07.565Z,60.30
2018-02-06T21:50:35.042Z,60.30
2018-02-06T21:53:03.305Z,60.40
2018-02-06T21:55:30.790Z,60.40
2018-02-06T21:57:58.288Z,60.50
2018-02-06T22:00:25.756Z,60.50
2018-02-06T22:02:53.241Z,60.60
2018-02-06T22:05:21.478Z,60.90
2018-02-06T22:07:48.964Z,60.90
2018-02-06T22:10:17.297Z,60.90
2018-02-06T22:12:44.753Z,60.90
2018-02-06T22:15:12.240Z,60.90
2018-02-06T22:17:39.720Z,61.00
2018-02-06T22:20:07.213Z,61.20
2018-02-06T22:22:34.693Z,61.10
2018-02-06T22:25:02.157Z,61.10
2018-02-06T22:27:29.649Z,61.10
2018-02-06T22:29:57.146Z,61.00
2018-02-06T22:32:24.616Z,61.10
2018-02-06T22:34:52.120Z,61.10
2018-02-06T22:37:20.368Z,61.20
2018-02-06T22:39:48.600Z,61.20
2018-02-06T22:42:16.097Z,61.30
2018-02-06T22:44:43.561Z,61.40
2018-02-06T22:47:11.797Z,61.40
2018-02-06T22:49:39.415Z,61.40
2018-02-06T22:52:07.643Z,61.70
2018-02-06T22:54:35.130Z,61.60
2018-02-06T22:57:03.385Z,61.90
2018-02-06T22:59:30.852Z,61.80
2018-02-06T23:01:58.362Z,62.00
2018-02-06T23:04:25.816Z,62.00
2018-02-06T23:06:53.286Z,62.10
2018-02-06T23:09:20.838Z,62.20
2018-02-06T23:11:48.310Z,62.20
2018-02-06T23:14:15.806Z,62.20
2018-02-06T23:16:44.036Z,62.80
2018-02-06T23:19:11.514Z,62.20
2018-02-06T23:21:39.057Z,62.20
2018-02-06T23:24:06.522Z,63.00
2018-02-06T23:26:34.003Z,62.40
2018-02-06T23:29:02.238Z,62.50
2018-02-06T23:31:29.729Z,62.50
2018-02-06T23:33:57.960Z,62.70
2018-02-06T23:36:25.433Z,62.70
2018-02-06T23:38:52.929Z,62.70
2018-02-06T23:41:20.400Z,62.80
2018-02-06T23:43:47.878Z,62.90
2018-02-06T23:46:15.365Z,63.00
2018-02-06T23:48:42.825Z,63.00
2018-02-06T23:51:10.308Z,63.00
2018-02-06T23:53:37.794Z,62.90
2018-02-06T23:56:05.274Z,62.90
2018-02-06T23:58:32.758Z,62.90
